Autoridad de Aeronautica Civil de Panamá


metar




ESTACIONES DESCRIPCION
MPTO (M) 220000Z 08003KT 9999 SCT016 SCT090 27/25 Q1010 NOSIG=  
MPBO (M) 212000Z 00000KT 9999 FEW020 SCT090 Q1012  
MPCH (M) 220100Z 30004KT 9999 FEW030TCU SCT070 Q1014 RMK TCU SW  
MPSA (M) 212200Z 00000KT 9000 SCT015TCU BKN080 28/25 Q1009 RMK TCU NW-NE/SW HZ ALQDS=  
MPCE (M) 212200Z 00000KT 9000 DZ FEW007 SCT015 BKN060 26/// Q1009 RWY WET RMK ST ALQDS PCPN SE-SW=  
MPPN (M) 212200Z 00000KT(E) 9000 DZ SCT015 OVC100 ///// Q//// RWY DAMP=  
MPSM (M) 220100Z 33003KT(E) 9999 FEW030 25/24 Q1010  
MPJE (M) FUERA DE SERVICIO  
MPPA (M) 220100Z 00000KT 9999 FEW018 24/23 Q1009=  
MPMG (M) 220100Z 30004KT 260V340 9999 FEW016 26/23 Q1010 NOSIG  
MPDA (M)220100Z 25004KT 9999 FEW015 27/25 Q1010=  
MPVR M) 212200Z NIL=  
MPWN (M)  
MPOA (M) FUERA DE SERVICIO  
MPMF (M) 212200Z NIL=  
MPEJ (M) 212200Z 00000KT 8000-TSRA FEW008 SCT018CB 23/// Q//// RWY WET RMK CB NE=  


CLIMATICAS

MPTO

21 Agosto 2019

PCPN (mm)

T° MAX

T° MIN

VIENTO MAX (KT)

HORA

VIENTO PREDOM (KT)

0.0

30.3

23 .7

15008KT

1800Z

VRB06KT

CLIMATICAS

MPMG

21-AGOSTO-2019

PCPN (mm)

T° MAX

T° MIN

VIENTO MAX (KT)

HORA

VIENTO PREDOM (KT)-

0.0

30.1

24.7

17012KT

1900Z

S

 



Contador: 153